Time;durP1;ratioP1;P1;durP2;ratioP2;P2;SDS_P1;SDS_P2;PMS_P1;PMS_P2;Temp;Humidity;BMP_temperature;BMP_pressure;BME280_temperature;BME280_humidity;BME280_pressure;Samples;Min_cycle;Max_cycle;Signal;HPM_P1;HPM_P2
2021/08/01 00:02:12;;;;;;;6.53;3.73;;;16.10;97.30;;;;;;5044833;28;20749;-86
2021/08/01 00:04:38;;;;;;;5.60;3.53;;;16.10;97.30;;;;;;5012972;28;20174;-86
2021/08/01 00:07:04;;;;;;;5.37;3.63;;;16.00;97.30;;;;;;5044516;28;20173;-87
2021/08/01 00:09:30;;;;;;;13.13;3.80;;;15.90;97.30;;;;;;5045087;28;20189;-86
2021/08/01 00:11:56;;;;;;;9.03;4.13;;;15.90;97.30;;;;;;5044872;28;20444;-86
2021/08/01 00:14:21;;;;;;;6.67;3.27;;;15.90;97.30;;;;;;5044240;28;20184;-85
2021/08/01 00:16:47;;;;;;;6.83;4.00;;;15.80;97.30;;;;;;5035986;28;20209;-86
2021/08/01 00:19:12;;;;;;;4.47;3.53;;;15.80;97.30;;;;;;4991783;28;20624;-86
2021/08/01 00:21:38;;;;;;;4.60;3.30;;;15.80;97.30;;;;;;4991763;28;20678;-86
2021/08/01 00:24:04;;;;;;;5.87;3.57;;;15.80;97.30;;;;;;4991834;28;20631;-87
2021/08/01 00:26:29;;;;;;;6.50;3.90;;;15.70;97.30;;;;;;4991613;28;20190;-88
2021/08/01 00:28:55;;;;;;;9.20;3.90;;;15.70;97.30;;;;;;4992013;28;20231;-85
2021/08/01 00:31:21;;;;;;;9.27;4.27;;;15.70;97.30;;;;;;4991747;28;20679;-86
2021/08/01 00:33:46;;;;;;;9.00;3.93;;;15.70;97.30;;;;;;4991994;28;20186;-86
2021/08/01 00:36:12;;;;;;;6.50;3.77;;;15.70;97.30;;;;;;4991625;28;20236;-89
2021/08/01 00:38:37;;;;;;;8.20;3.67;;;15.70;97.30;;;;;;4991638;28;20238;-86
2021/08/01 00:41:03;;;;;;;5.93;4.10;;;15.70;97.30;;;;;;4991571;28;20366;-86
2021/08/01 00:43:28;;;;;;;5.93;3.53;;;15.70;97.30;;;;;;4991590;28;20178;-87
2021/08/01 00:45:54;;;;;;;5.43;3.50;;;15.70;97.30;;;;;;4991427;28;20185;-86
2021/08/01 00:48:23;;;;;;;6.10;3.80;;;15.60;97.30;;;;;;4991613;28;20188;-86
2021/08/01 00:50:49;;;;;;;6.60;3.50;;;15.60;97.30;;;;;;4991808;28;20182;-88
2021/08/01 00:53:15;;;;;;;7.37;3.77;;;15.60;97.30;;;;;;4991624;28;20427;-86
2021/08/01 00:55:41;;;;;;;6.00;4.07;;;15.60;97.30;;;;;;4991709;28;20457;-86
2021/08/01 00:58:07;;;;;;;6.30;3.90;;;15.60;97.30;;;;;;4991763;28;20182;-86
2021/08/01 01:03:23;;;;;;;6.30;4.00;;;15.50;97.30;;;;;;5012485;28;20419;-86
2021/08/01 01:06:05;;;;;;;4.67;3.70;;;15.50;97.30;;;;;;5013220;28;20472;-86
2021/08/01 01:08:48;;;;;;;5.83;3.87;;;15.50;97.30;;;;;;5047741;28;20424;-86
2021/08/01 01:11:15;;;;;;;5.63;3.80;;;15.50;97.30;;;;;;5014599;28;20522;-86
2021/08/01 01:13:45;;;;;;;8.53;4.00;;;15.40;97.30;;;;;;5048025;28;20817;-86
2021/08/01 01:16:11;;;;;;;9.23;3.87;;;15.40;97.30;;;;;;5014665;28;20501;-86
2021/08/01 01:18:53;;;;;;;5.33;3.90;;;15.30;97.30;;;;;;5047774;28;20424;-86
2021/08/01 01:21:47;;;;;;;6.23;3.73;;;15.30;97.30;;;;;;5047580;28;20201;-86
2021/08/01 01:24:14;;;;;;;5.73;3.90;;;15.40;97.30;;;;;;5047503;28;20442;-86
2021/08/01 01:27:02;;;;;;;5.77;4.27;;;15.30;97.30;;;;;;5047920;28;20506;-86
2021/08/01 01:29:32;;;;;;;5.83;4.00;;;15.30;97.30;;;;;;5047776;28;20454;-86
2021/08/01 01:32:04;;;;;;;10.33;4.63;;;15.40;97.30;;;;;;5047358;28;20436;-86
2021/08/01 01:34:36;;;;;;;7.53;3.67;;;15.40;97.30;;;;;;5014222;28;20494;-87
2021/08/01 01:37:04;;;;;;;8.43;4.50;;;15.40;97.30;;;;;;5015782;28;21027;-86
2021/08/01 01:39:32;;;;;;;5.33;4.20;;;15.30;97.30;;;;;;5047449;28;20427;-86
2021/08/01 01:41:59;;;;;;;5.27;3.80;;;15.30;97.30;;;;;;5047454;28;20531;-86
2021/08/01 01:44:25;;;;;;;4.40;3.80;;;15.40;97.30;;;;;;5047300;28;20413;-87
2021/08/01 01:46:51;;;;;;;5.90;4.20;;;15.30;97.30;;;;;;5047415;28;20478;-86
2021/08/01 01:49:17;;;;;;;9.87;4.30;;;15.30;97.30;;;;;;5047326;28;20910;-87
2021/08/01 01:51:44;;;;;;;5.47;3.83;;;15.30;97.30;;;;;;5047320;28;20678;-86
2021/08/01 01:54:10;;;;;;;6.27;3.90;;;15.30;97.30;;;;;;5047204;28;20184;-87
2021/08/01 01:56:37;;;;;;;10.90;3.83;;;15.30;97.30;;;;;;5047219;28;20451;-87
2021/08/01 01:59:03;;;;;;;6.87;4.03;;;15.30;97.30;;;;;;5014043;28;20419;-86
2021/08/01 02:01:29;;;;;;;6.37;4.20;;;15.30;97.30;;;;;;5047021;28;21195;-86
2021/08/01 02:03:55;;;;;;;7.93;4.20;;;15.30;97.30;;;;;;5047246;28;20412;-86
2021/08/01 02:06:20;;;;;;;6.47;4.10;;;15.30;97.30;;;;;;5088484;22;20242;-85
2021/08/01 02:08:54;;;;;;;7.50;4.30;;;15.30;97.30;;;;;;5054523;28;20176;-85
2021/08/01 02:11:23;;;;;;;5.00;3.60;;;15.30;97.30;;;;;;5055209;28;20959;-86
2021/08/01 02:13:55;;;;;;;10.00;4.30;;;15.30;97.30;;;;;;5053929;28;20410;-86
2021/08/01 02:16:27;;;;;;;6.90;4.00;;;15.20;97.30;;;;;;5054129;28;20490;-86
2021/08/01 02:18:56;;;;;;;5.87;3.90;;;15.20;97.30;;;;;;5054501;28;20410;-86
2021/08/01 02:21:22;;;;;;;6.53;4.03;;;15.10;97.30;;;;;;5053656;28;20489;-86
2021/08/01 02:23:50;;;;;;;6.73;3.53;;;15.10;97.30;;;;;;5053814;28;20411;-85
2021/08/01 02:26:19;;;;;;;6.80;4.17;;;15.10;97.30;;;;;;5053400;28;20497;-85
2021/08/01 02:28:47;;;;;;;6.53;4.17;;;15.10;97.30;;;;;;5053811;28;20421;-85
2021/08/01 02:31:14;;;;;;;6.87;3.63;;;15.10;97.30;;;;;;5055579;28;20783;-86
2021/08/01 02:33:41;;;;;;;7.10;4.37;;;15.10;97.30;;;;;;5053875;28;20425;-85
2021/08/01 02:36:08;;;;;;;7.50;4.10;;;15.10;97.30;;;;;;5054175;28;20482;-86
2021/08/01 02:38:35;;;;;;;8.13;4.60;;;15.10;97.30;;;;;;5053583;28;20458;-85
2021/08/01 02:41:08;;;;;;;6.33;3.50;;;15.10;97.30;;;;;;5053597;28;20482;-86
2021/08/01 02:43:34;;;;;;;5.33;4.00;;;15.10;97.30;;;;;;5053652;28;20771;-85
2021/08/01 02:46:03;;;;;;;6.63;3.83;;;15.20;97.30;;;;;;5053632;28;20942;-86
2021/08/01 02:48:32;;;;;;;7.17;3.97;;;15.20;97.30;;;;;;5053506;28;20407;-85
2021/08/01 02:51:01;;;;;;;8.77;4.70;;;15.20;97.30;;;;;;5053015;28;20476;-86
2021/08/01 02:53:30;;;;;;;10.33;3.83;;;15.20;97.30;;;;;;5055209;28;20747;-85
2021/08/01 02:55:57;;;;;;;8.03;4.63;;;15.10;97.30;;;;;;5054602;28;20819;-85
2021/08/01 02:58:26;;;;;;;8.87;5.00;;;15.10;97.30;;;;;;5054707;28;20497;-85
2021/08/01 03:00:53;;;;;;;5.87;4.10;;;15.10;97.30;;;;;;5053258;28;20414;-85
2021/08/01 03:03:20;;;;;;;8.30;4.53;;;15.10;97.30;;;;;;5053309;28;20442;-85
2021/08/01 03:05:46;;;;;;;10.40;4.53;;;15.10;97.30;;;;;;5052918;28;20462;-85
2021/08/01 03:08:13;;;;;;;5.07;3.63;;;15.10;97.30;;;;;;5052911;28;20579;-86
2021/08/01 03:10:51;;;;;;;7.60;3.73;;;15.10;97.30;;;;;;5053647;28;20426;-86
2021/08/01 03:13:18;;;;;;;6.80;4.10;;;15.10;97.30;;;;;;5053916;28;20907;-86
2021/08/01 03:15:43;;;;;;;9.10;3.93;;;15.10;97.30;;;;;;5053385;28;21054;-86
2021/08/01 03:18:10;;;;;;;7.30;4.30;;;15.10;97.30;;;;;;5052949;28;20496;-85
2021/08/01 03:20:37;;;;;;;6.40;3.80;;;15.10;97.30;;;;;;5052913;28;20176;-85
2021/08/01 03:23:02;;;;;;;7.70;4.47;;;15.10;97.30;;;;;;5053123;28;20514;-85
2021/08/01 03:25:28;;;;;;;8.90;4.90;;;15.00;97.30;;;;;;5052789;28;20458;-85
2021/08/01 03:27:53;;;;;;;4.97;3.80;;;15.00;97.30;;;;;;5052154;28;20188;-86
2021/08/01 03:30:19;;;;;;;8.70;4.40;;;15.00;97.30;;;;;;5052471;28;20190;-85
2021/08/01 03:32:44;;;;;;;4.73;3.70;;;15.00;97.30;;;;;;5052099;28;20665;-85
2021/08/01 03:35:10;;;;;;;9.67;4.73;;;15.00;97.30;;;;;;5053000;28;20602;-85
2021/08/01 03:37:36;;;;;;;5.17;3.43;;;15.00;97.30;;;;;;5052453;28;20255;-85
2021/08/01 03:40:02;;;;;;;6.93;4.13;;;14.90;97.30;;;;;;5052603;28;20175;-85
2021/08/01 03:42:27;;;;;;;6.77;3.93;;;14.90;97.30;;;;;;5052888;28;20195;-85
2021/08/01 03:44:53;;;;;;;8.50;3.80;;;14.90;97.30;;;;;;5053038;28;20912;-86
2021/08/01 03:47:18;;;;;;;9.97;4.23;;;14.90;97.30;;;;;;5052325;28;20253;-86
2021/08/01 03:49:44;;;;;;;5.90;3.90;;;14.80;97.30;;;;;;5052806;28;20698;-85
2021/08/01 03:52:11;;;;;;;7.00;4.27;;;14.80;97.30;;;;;;5052174;28;20200;-86
2021/08/01 03:54:36;;;;;;;5.03;3.70;;;14.90;97.30;;;;;;5052843;28;20184;-86
2021/08/01 03:57:02;;;;;;;8.20;4.33;;;14.90;97.30;;;;;;5052714;28;20545;-86
2021/08/01 03:59:27;;;;;;;5.20;3.60;;;14.90;97.30;;;;;;5052307;28;20446;-86
2021/08/01 04:01:53;;;;;;;8.37;4.30;;;14.90;97.30;;;;;;5052209;28;20196;-86
2021/08/01 04:04:19;;;;;;;8.13;3.80;;;15.00;97.30;;;;;;5051849;28;20334;-86
2021/08/01 04:06:44;;;;;;;7.03;4.60;;;15.00;97.30;;;;;;5051994;28;20232;-85
2021/08/01 04:09:10;;;;;;;5.73;4.20;;;15.00;97.30;;;;;;5051587;28;20228;-86
2021/08/01 04:11:37;;;;;;;5.73;3.53;;;15.10;97.30;;;;;;5052119;28;20212;-85
2021/08/01 04:14:04;;;;;;;6.53;4.53;;;15.10;97.30;;;;;;5052021;28;20345;-85
2021/08/01 04:16:29;;;;;;;10.90;3.70;;;15.10;97.30;;;;;;5052115;28;20453;-86
2021/08/01 04:18:55;;;;;;;6.80;4.10;;;15.10;97.30;;;;;;5051284;28;20430;-86
2021/08/01 04:21:20;;;;;;;6.73;4.23;;;15.10;97.30;;;;;;5051736;28;20237;-86
2021/08/01 04:23:46;;;;;;;5.87;3.60;;;15.10;97.30;;;;;;5052121;28;20211;-86
2021/08/01 04:26:12;;;;;;;5.40;4.10;;;15.20;97.30;;;;;;5052251;28;20198;-85
2021/08/01 04:28:37;;;;;;;6.13;3.87;;;15.20;97.30;;;;;;5052015;28;20186;-86
2021/08/01 04:31:03;;;;;;;6.20;4.10;;;15.20;97.30;;;;;;5052109;28;20196;-86
2021/08/01 04:33:29;;;;;;;6.63;3.97;;;15.20;97.30;;;;;;5053340;28;20194;-85
2021/08/01 04:35:54;;;;;;;8.90;4.40;;;15.20;97.30;;;;;;5053608;28;20207;-85
2021/08/01 04:38:20;;;;;;;5.80;3.70;;;15.20;97.30;;;;;;5051007;28;20186;-86
2021/08/01 04:40:46;;;;;;;7.83;4.17;;;15.30;97.30;;;;;;5054300;28;20167;-86
2021/08/01 04:43:12;;;;;;;9.07;3.53;;;15.30;97.30;;;;;;5056668;28;20531;-85
2021/08/01 04:45:37;;;;;;;6.63;3.93;;;15.30;97.30;;;;;;5056423;28;20418;-86
2021/08/01 04:48:05;;;;;;;6.50;4.50;;;15.30;97.30;;;;;;5056023;28;20175;-86
2021/08/01 04:50:31;;;;;;;6.03;4.47;;;15.30;97.30;;;;;;5056059;28;20206;-86
2021/08/01 04:52:56;;;;;;;6.27;4.60;;;15.30;97.30;;;;;;5055868;28;20438;-86
2021/08/01 04:55:22;;;;;;;7.60;4.60;;;15.40;97.30;;;;;;5055907;28;20824;-86
2021/08/01 04:57:48;;;;;;;10.53;4.30;;;15.40;97.30;;;;;;5055830;28;20199;-85
2021/08/01 05:00:14;;;;;;;6.07;4.17;;;15.50;97.30;;;;;;5056195;28;20418;-86
2021/08/01 05:02:40;;;;;;;7.70;4.40;;;15.50;97.30;;;;;;5055881;28;20235;-86
2021/08/01 05:05:06;;;;;;;6.20;4.20;;;15.50;97.30;;;;;;5055608;28;20458;-85
2021/08/01 05:07:32;;;;;;;6.57;3.83;;;15.50;97.30;;;;;;5056028;28;20182;-86
2021/08/01 05:09:59;;;;;;;7.33;4.73;;;15.60;97.30;;;;;;5055580;28;20418;-85
2021/08/01 05:12:25;;;;;;;6.90;4.83;;;15.60;97.30;;;;;;5056723;28;20438;-86
2021/08/01 05:14:51;;;;;;;7.47;4.20;;;15.60;97.30;;;;;;5055280;28;20436;-86
2021/08/01 05:17:16;;;;;;;8.73;3.90;;;15.60;97.30;;;;;;5055122;28;20963;-86
2021/08/01 05:19:42;;;;;;;5.80;4.03;;;15.70;97.30;;;;;;5055649;28;20172;-86
2021/08/01 05:22:09;;;;;;;9.37;4.70;;;15.70;97.30;;;;;;5055347;28;20728;-86
2021/08/01 05:24:36;;;;;;;6.70;4.23;;;15.70;97.30;;;;;;5055607;28;20414;-86
2021/08/01 05:27:02;;;;;;;8.03;4.07;;;15.80;97.30;;;;;;5057336;28;20422;-86
2021/08/01 05:29:28;;;;;;;7.90;4.10;;;15.80;97.30;;;;;;5055728;28;20427;-86
2021/08/01 05:31:54;;;;;;;6.20;4.40;;;15.80;97.30;;;;;;5055447;28;20476;-86
2021/08/01 05:34:20;;;;;;;7.53;4.13;;;15.80;97.30;;;;;;5055316;28;20184;-86
2021/08/01 05:36:46;;;;;;;5.93;4.10;;;15.90;97.30;;;;;;5055075;28;20454;-86
2021/08/01 05:39:12;;;;;;;7.67;4.60;;;15.90;97.30;;;;;;5055445;28;20421;-85
2021/08/01 05:41:38;;;;;;;6.30;4.00;;;15.90;97.30;;;;;;5055408;28;20227;-86
2021/08/01 05:44:04;;;;;;;6.40;3.90;;;16.00;97.30;;;;;;5054954;28;20418;-86
2021/08/01 05:46:29;;;;;;;6.93;4.27;;;16.00;97.30;;;;;;5054674;28;20184;-86
2021/08/01 05:48:55;;;;;;;7.10;4.13;;;16.10;97.30;;;;;;5054604;28;20655;-86
2021/08/01 05:51:20;;;;;;;6.20;4.30;;;16.10;97.30;;;;;;5054143;28;20200;-86
2021/08/01 05:53:46;;;;;;;9.40;4.57;;;16.20;97.30;;;;;;5054722;28;20180;-86
2021/08/01 05:56:12;;;;;;;9.13;4.60;;;16.20;97.30;;;;;;5055335;28;20203;-86
2021/08/01 05:58:39;;;;;;;9.33;5.10;;;16.30;97.30;;;;;;5054992;28;20229;-86
2021/08/01 06:01:16;;;;;;;7.63;4.50;;;16.40;97.30;;;;;;5054965;28;20430;-86
2021/08/01 06:03:42;;;;;;;8.23;4.83;;;16.40;97.30;;;;;;5054967;28;20437;-86
2021/08/01 06:06:11;;;;;;;9.57;3.80;;;16.50;97.30;;;;;;5056002;28;20497;-86
2021/08/01 06:08:36;;;;;;;9.63;4.20;;;16.50;97.30;;;;;;5054940;28;20482;-86
2021/08/01 06:11:04;;;;;;;4.43;3.53;;;16.60;97.30;;;;;;5054686;28;20477;-86
2021/08/01 06:13:30;;;;;;;7.77;4.50;;;16.70;97.30;;;;;;5054503;28;20172;-86
2021/08/01 06:15:56;;;;;;;8.43;4.13;;;16.70;97.30;;;;;;5054853;28;20458;-85
2021/08/01 06:18:21;;;;;;;5.00;3.37;;;16.80;97.30;;;;;;5054659;28;20774;-86
2021/08/01 06:20:47;;;;;;;7.53;4.50;;;16.80;97.30;;;;;;5054874;28;20202;-86
2021/08/01 06:23:12;;;;;;;5.90;4.60;;;16.80;97.30;;;;;;5054560;28;20174;-86
2021/08/01 06:25:38;;;;;;;6.97;4.53;;;16.90;97.30;;;;;;5054028;28;20200;-86
2021/08/01 06:28:05;;;;;;;7.70;4.77;;;16.90;97.30;;;;;;5054611;28;20705;-86
2021/08/01 06:30:30;;;;;;;9.47;4.10;;;17.00;97.30;;;;;;5055399;28;20430;-86
2021/08/01 06:32:56;;;;;;;8.70;4.77;;;17.00;97.30;;;;;;5054934;28;20430;-86
2021/08/01 06:35:22;;;;;;;6.27;4.40;;;17.00;97.30;;;;;;5055950;28;20175;-86
2021/08/01 06:37:47;;;;;;;7.30;4.87;;;17.10;97.30;;;;;;5057072;28;20168;-85
2021/08/01 06:40:15;;;;;;;7.27;4.77;;;17.10;97.30;;;;;;5054764;28;20168;-86
2021/08/01 06:42:42;;;;;;;7.57;4.40;;;17.20;97.30;;;;;;5054166;28;20192;-86
2021/08/01 06:45:08;;;;;;;9.67;5.17;;;17.20;97.30;;;;;;5054464;28;20418;-86
2021/08/01 06:47:34;;;;;;;6.63;4.70;;;17.30;97.30;;;;;;5053956;28;20415;-86
2021/08/01 06:49:59;;;;;;;8.40;5.03;;;17.40;97.30;;;;;;5054053;28;20414;-86
2021/08/01 06:52:25;;;;;;;9.47;5.13;;;17.40;97.30;;;;;;5054340;28;20579;-86
2021/08/01 06:54:50;;;;;;;7.60;4.50;;;17.50;97.30;;;;;;5053832;28;20197;-86
2021/08/01 06:57:16;;;;;;;9.93;4.90;;;17.50;97.30;;;;;;5053383;28;20199;-86
2021/08/01 06:59:41;;;;;;;7.43;4.47;;;17.60;97.30;;;;;;5053632;28;20171;-87
2021/08/01 07:02:07;;;;;;;7.03;4.60;;;17.70;97.30;;;;;;5053278;28;20196;-86
2021/08/01 07:04:32;;;;;;;7.83;4.50;;;17.70;97.30;;;;;;5053590;28;20183;-85
2021/08/01 07:06:58;;;;;;;10.40;4.90;;;17.80;97.30;;;;;;5053420;28;20297;-86
2021/08/01 07:09:25;;;;;;;8.70;4.37;;;17.80;97.30;;;;;;5054176;28;20556;-86
2021/08/01 07:11:51;;;;;;;9.50;4.00;;;17.90;97.30;;;;;;5053608;28;20656;-86
2021/08/01 07:14:17;;;;;;;6.57;4.67;;;17.90;97.30;;;;;;5053684;28;20429;-86
2021/08/01 07:16:45;;;;;;;7.17;4.80;;;18.00;97.30;;;;;;5053151;28;20805;-86
2021/08/01 07:19:11;;;;;;;6.97;4.50;;;18.00;97.30;;;;;;5053099;28;20670;-86
2021/08/01 07:21:37;;;;;;;6.63;3.83;;;18.00;97.30;;;;;;5053521;28;20434;-86
2021/08/01 07:24:03;;;;;;;9.03;4.40;;;18.00;97.30;;;;;;5054417;28;20410;-86
2021/08/01 07:26:29;;;;;;;5.40;3.90;;;18.00;97.30;;;;;;5053329;28;20175;-86
2021/08/01 07:28:54;;;;;;;9.50;4.00;;;18.00;97.30;;;;;;5053543;28;20194;-86
2021/08/01 07:31:20;;;;;;;9.57;4.90;;;18.00;97.30;;;;;;5053225;28;20208;-86
2021/08/01 07:33:47;;;;;;;5.90;3.93;;;18.10;97.30;;;;;;5052443;28;20270;-86
2021/08/01 07:36:13;;;;;;;4.97;3.70;;;18.10;97.30;;;;;;5053378;28;20199;-86
2021/08/01 07:38:40;;;;;;;7.07;3.73;;;18.10;97.30;;;;;;5053316;28;20904;-86
2021/08/01 07:41:05;;;;;;;6.90;4.20;;;18.10;97.30;;;;;;5052439;28;20349;-86
2021/08/01 07:43:31;;;;;;;6.73;3.90;;;18.10;97.30;;;;;;5053087;28;20948;-86
2021/08/01 07:45:56;;;;;;;5.90;3.77;;;18.10;97.30;;;;;;5052626;28;20257;-86
2021/08/01 07:48:22;;;;;;;9.83;4.67;;;18.20;97.30;;;;;;5052706;28;20186;-86
2021/08/01 07:50:48;;;;;;;7.70;4.30;;;18.20;97.30;;;;;;5053222;28;20589;-86
2021/08/01 07:53:13;;;;;;;8.07;5.50;;;18.20;97.30;;;;;;5052985;28;20234;-86
2021/08/01 07:55:42;;;;;;;8.00;4.23;;;18.30;97.30;;;;;;5053416;28;20230;-86
2021/08/01 07:58:07;;;;;;;6.93;4.00;;;18.30;97.30;;;;;;5052785;28;20176;-86
2021/08/01 08:00:33;;;;;;;9.83;4.07;;;18.30;97.30;;;;;;5053558;28;20508;-86
2021/08/01 08:03:01;;;;;;;7.80;3.73;;;18.40;97.30;;;;;;5052375;28;20582;-86
2021/08/01 08:05:27;;;;;;;4.70;3.60;;;18.50;97.30;;;;;;5052421;28;20228;-86
2021/08/01 08:07:54;;;;;;;4.20;3.57;;;18.50;97.30;;;;;;5053218;28;20415;-86
2021/08/01 08:10:19;;;;;;;10.00;4.20;;;18.60;97.30;;;;;;5052430;28;20176;-87
2021/08/01 08:12:45;;;;;;;6.30;4.03;;;18.70;97.30;;;;;;5052325;28;20580;-87
2021/08/01 08:15:12;;;;;;;8.53;4.43;;;18.80;97.30;;;;;;5052456;28;20194;-87
2021/08/01 08:17:38;;;;;;;6.90;4.10;;;18.80;97.30;;;;;;5053086;28;20548;-86
2021/08/01 08:20:05;;;;;;;9.13;4.10;;;18.80;97.30;;;;;;5054710;22;20488;-85
2021/08/01 08:22:31;;;;;;;5.13;3.70;;;18.90;97.30;;;;;;5002956;28;20192;-84
2021/08/01 08:24:56;;;;;;;6.33;3.60;;;18.90;97.30;;;;;;5010216;28;20416;-83
2021/08/01 08:27:22;;;;;;;5.30;3.60;;;19.00;97.30;;;;;;5013559;28;20177;-82
2021/08/01 08:29:48;;;;;;;10.30;3.93;;;19.00;97.30;;;;;;5015915;28;20203;-81
2021/08/01 08:32:13;;;;;;;5.77;3.67;;;19.00;97.30;;;;;;5013370;28;20181;-83
2021/08/01 08:34:39;;;;;;;7.90;4.00;;;19.10;97.30;;;;;;5015968;28;20575;-81
2021/08/01 08:37:04;;;;;;;7.37;4.03;;;19.10;97.30;;;;;;5013731;28;20205;-81
2021/08/01 08:39:30;;;;;;;10.43;3.83;;;19.10;97.30;;;;;;5012560;28;20193;-83
2021/08/01 08:41:59;;;;;;;6.07;3.33;;;19.10;97.30;;;;;;5012587;28;20242;-85
2021/08/01 08:44:26;;;;;;;7.47;4.03;;;19.10;97.30;;;;;;5018124;28;20258;-82
2021/08/01 08:46:54;;;;;;;5.77;3.73;;;19.10;97.30;;;;;;5018402;28;20511;-83
2021/08/01 08:49:23;;;;;;;3.40;2.80;;;19.10;97.30;;;;;;5016548;28;20491;-81
2021/08/01 08:51:53;;;;;;;7.20;3.67;;;19.20;97.30;;;;;;5011755;28;20474;-84
2021/08/01 08:54:31;;;;;;;4.07;3.10;;;19.30;97.30;;;;;;5014057;28;20926;-83
2021/08/01 08:56:59;;;;;;;5.47;3.60;;;19.20;97.30;;;;;;5013316;28;20546;-82
2021/08/01 08:59:25;;;;;;;5.27;3.33;;;19.20;97.30;;;;;;5015368;28;20431;-82
2021/08/01 09:01:50;;;;;;;8.43;3.80;;;19.30;97.30;;;;;;5014718;28;20926;-82
2021/08/01 09:04:16;;;;;;;5.50;3.53;;;19.30;97.30;;;;;;4997970;28;20426;-83
2021/08/01 09:06:43;;;;;;;3.67;3.10;;;19.40;97.30;;;;;;4996007;28;20240;-83
2021/08/01 09:09:10;;;;;;;5.57;3.67;;;19.40;97.30;;;;;;4994548;28;20206;-83
2021/08/01 09:11:36;;;;;;;6.03;3.30;;;19.40;97.30;;;;;;4993811;28;20421;-83
2021/08/01 09:14:02;;;;;;;5.83;3.67;;;19.40;97.30;;;;;;4994966;28;20730;-83
2021/08/01 09:16:48;;;;;;;6.40;3.43;;;19.40;97.30;;;;;;4998934;28;20487;-82
2021/08/01 09:19:25;;;;;;;4.70;3.77;;;19.40;97.30;;;;;;5011133;28;20348;-84
2021/08/01 09:21:51;;;;;;;6.90;3.70;;;19.40;97.30;;;;;;5013135;28;20462;-83
2021/08/01 09:24:17;;;;;;;9.03;3.47;;;19.50;97.30;;;;;;5015540;28;20408;-84
2021/08/01 09:26:50;;;;;;;5.40;3.80;;;19.50;97.30;;;;;;5016016;28;20404;-82
2021/08/01 09:29:16;;;;;;;6.13;3.77;;;19.60;97.30;;;;;;5017509;28;20702;-83
2021/08/01 09:31:43;;;;;;;7.07;4.00;;;19.70;97.30;;;;;;5019634;28;20496;-83
2021/08/01 09:34:25;;;;;;;6.70;3.83;;;19.80;97.30;;;;;;5014730;28;20965;-83
2021/08/01 09:37:02;;;;;;;5.50;4.07;;;19.80;97.30;;;;;;5003567;28;20487;-84
2021/08/01 09:39:29;;;;;;;6.47;4.30;;;19.90;97.30;;;;;;5008756;28;20440;-83
2021/08/01 09:42:02;;;;;;;5.27;3.70;;;20.00;97.30;;;;;;5004821;28;20503;-82
2021/08/01 09:44:28;;;;;;;4.60;3.53;;;20.00;97.30;;;;;;5000213;28;20861;-82
2021/08/01 09:46:55;;;;;;;4.63;3.50;;;20.00;97.30;;;;;;5007423;28;20425;-86
2021/08/01 09:49:23;;;;;;;8.60;3.33;;;20.10;97.30;;;;;;4999068;28;20436;-83
2021/08/01 09:51:57;;;;;;;5.17;3.20;;;20.20;97.30;;;;;;4997341;28;20417;-84
2021/08/01 09:54:42;;;;;;;4.17;3.03;;;20.10;97.30;;;;;;4996481;28;20425;-83
2021/08/01 09:57:08;;;;;;;4.60;3.10;;;20.10;96.90;;;;;;4996612;28;20470;-82
2021/08/01 09:59:33;;;;;;;8.63;3.70;;;20.10;95.60;;;;;;4996792;28;20528;-83
2021/08/01 10:02:04;;;;;;;4.70;3.00;;;20.10;95.70;;;;;;4996256;28;20208;-83
2021/08/01 10:04:37;;;;;;;3.73;3.30;;;20.20;96.60;;;;;;4996413;28;20915;-82
2021/08/01 10:07:13;;;;;;;4.87;3.50;;;20.20;96.40;;;;;;4996602;28;20433;-82
2021/08/01 10:09:41;;;;;;;5.17;3.00;;;20.30;95.70;;;;;;4998289;28;20444;-83
2021/08/01 10:12:09;;;;;;;3.80;2.60;;;20.30;96.00;;;;;;4997905;28;20847;-83
2021/08/01 10:14:35;;;;;;;5.00;3.53;;;20.40;96.20;;;;;;4997923;28;20436;-87
2021/08/01 10:17:01;;;;;;;4.20;3.30;;;20.50;95.30;;;;;;5007434;28;20455;-83
2021/08/01 10:19:27;;;;;;;6.40;3.53;;;20.50;95.90;;;;;;5015933;28;20441;-83
2021/08/01 10:21:57;;;;;;;4.43;3.27;;;20.60;95.30;;;;;;5015469;28;20446;-83
2021/08/01 10:24:24;;;;;;;4.80;3.47;;;20.70;96.60;;;;;;5015789;28;20205;-84
2021/08/01 10:26:53;;;;;;;5.40;3.33;;;20.70;95.50;;;;;;5015239;28;20515;-83
2021/08/01 10:29:39;;;;;;;5.40;3.70;;;20.70;95.40;;;;;;5015232;28;20553;-83
2021/08/01 10:32:07;;;;;;;4.90;3.53;;;20.70;95.80;;;;;;5015311;28;20506;-86
2021/08/01 10:35:01;;;;;;;5.30;3.13;;;20.70;96.90;;;;;;5015484;28;20502;-83
2021/08/01 10:37:31;;;;;;;5.00;3.23;;;20.70;94.70;;;;;;5015676;28;20466;-83
2021/08/01 10:39:58;;;;;;;4.30;3.40;;;20.70;94.70;;;;;;5016615;28;21028;-83
2021/08/01 10:42:27;;;;;;;4.50;3.30;;;20.70;95.70;;;;;;5017698;28;20495;-83
2021/08/01 10:44:53;;;;;;;5.83;3.10;;;20.70;95.50;;;;;;5018060;28;20408;-83
2021/08/01 10:47:19;;;;;;;7.90;3.33;;;20.60;95.60;;;;;;5018720;28;20475;-83
2021/08/01 10:49:49;;;;;;;6.67;3.50;;;20.50;96.90;;;;;;5016868;28;20475;-83
2021/08/01 10:52:19;;;;;;;4.50;3.00;;;20.50;95.90;;;;;;5016202;28;20431;-83
2021/08/01 10:55:00;;;;;;;3.83;3.03;;;20.50;96.60;;;;;;5016996;28;20424;-83
2021/08/01 10:57:29;;;;;;;5.30;3.53;;;20.50;97.30;;;;;;5017170;28;20456;-84
2021/08/01 10:59:58;;;;;;;4.63;3.30;;;20.40;95.70;;;;;;5016705;28;20443;-83
2021/08/01 11:02:25;;;;;;;6.17;3.43;;;20.40;96.00;;;;;;5017783;28;20478;-83
2021/08/01 11:04:51;;;;;;;5.57;3.37;;;20.40;96.70;;;;;;5016150;28;20408;-84
2021/08/01 11:07:26;;;;;;;5.60;3.37;;;20.30;96.10;;;;;;5017343;28;20424;-83
2021/08/01 11:10:04;;;;;;;3.77;2.80;;;20.30;96.10;;;;;;5017356;28;20820;-83
2021/08/01 11:12:31;;;;;;;5.27;2.90;;;20.20;96.00;;;;;;5017211;28;20434;-84
2021/08/01 11:14:57;;;;;;;4.80;3.20;;;20.20;96.00;;;;;;5016007;28;20420;-83
2021/08/01 11:17:41;;;;;;;6.03;3.60;;;20.10;95.90;;;;;;5004305;28;20515;-83
2021/08/01 11:20:29;;;;;;;6.87;4.00;;;20.00;97.30;;;;;;4998910;28;20229;-81
2021/08/01 11:22:56;;;;;;;6.73;4.17;;;19.90;97.30;;;;;;4992348;28;20425;-81
2021/08/01 11:25:22;;;;;;;7.17;4.00;;;19.70;97.30;;;;;;4998704;28;20409;-82
2021/08/01 11:28:17;;;;;;;7.00;4.60;;;19.40;97.30;;;;;;4997717;28;20461;-82
2021/08/01 11:30:52;;;;;;;6.47;4.07;;;19.20;97.30;;;;;;4996376;28;20461;-82
2021/08/01 11:33:43;;;;;;;5.80;4.57;;;19.10;97.30;;;;;;4998364;28;20409;-82
2021/08/01 11:36:11;;;;;;;5.07;4.10;;;19.10;97.30;;;;;;4998658;28;20465;-82
2021/08/01 11:38:52;;;;;;;6.77;4.47;;;19.10;97.30;;;;;;4998091;28;20417;-81
2021/08/01 11:41:27;;;;;;;7.10;4.60;;;19.20;97.30;;;;;;4998036;28;20417;-81
2021/08/01 11:43:59;;;;;;;7.47;4.23;;;19.30;97.30;;;;;;4998099;28;21020;-82
2021/08/01 11:46:26;;;;;;;7.30;4.60;;;19.40;97.30;;;;;;4998086;28;20440;-82
2021/08/01 11:49:02;;;;;;;7.43;5.10;;;19.40;97.30;;;;;;4997606;28;20425;-81
2021/08/01 11:51:30;;;;;;;5.97;4.47;;;19.50;97.30;;;;;;4998090;28;20428;-82
2021/08/01 11:53:56;;;;;;;7.80;5.33;;;19.60;97.30;;;;;;4998780;28;20489;-81
2021/08/01 11:56:22;;;;;;;8.50;5.00;;;19.90;97.30;;;;;;5000335;28;20477;-82
2021/08/01 11:58:53;;;;;;;8.33;4.80;;;20.20;97.30;;;;;;4998878;28;20221;-83
2021/08/01 12:01:20;;;;;;;8.57;5.53;;;20.40;97.30;;;;;;4998730;28;20428;-82
2021/08/01 12:03:47;;;;;;;7.30;5.00;;;20.60;97.30;;;;;;4999855;28;20448;-82
2021/08/01 12:06:33;;;;;;;8.40;5.27;;;20.90;97.30;;;;;;4999011;28;20467;-82
2021/08/01 12:08:59;;;;;;;6.43;4.70;;;21.40;97.30;;;;;;4999197;28;20432;-82
2021/08/01 12:11:25;;;;;;;7.23;4.67;;;21.70;97.30;;;;;;4997646;28;20474;-84
2021/08/01 12:14:07;;;;;;;7.00;4.10;;;21.90;97.30;;;;;;4998178;28;20624;-82
2021/08/01 12:16:33;;;;;;;6.70;4.63;;;22.10;97.30;;;;;;5002458;28;20211;-83
2021/08/01 12:19:19;;;;;;;4.80;4.10;;;22.10;97.30;;;;;;5015725;28;20809;-83
2021/08/01 12:21:45;;;;;;;7.60;4.50;;;21.80;95.60;;;;;;5015815;28;20466;-82
2021/08/01 12:24:39;;;;;;;6.90;4.20;;;21.80;97.30;;;;;;5015326;28;20423;-82
2021/08/01 12:27:20;;;;;;;5.57;3.87;;;21.60;95.70;;;;;;5015023;28;20420;-82
2021/08/01 12:30:01;;;;;;;4.80;3.97;;;21.50;97.10;;;;;;5015814;28;20432;-82
2021/08/01 12:32:42;;;;;;;5.00;4.50;;;21.50;96.00;;;;;;5015811;28;20487;-82
2021/08/01 12:35:18;;;;;;;8.23;4.20;;;21.50;97.30;;;;;;5016497;28;20427;-83
2021/08/01 12:37:59;;;;;;;6.53;4.57;;;21.60;97.30;;;;;;5015849;28;20487;-83
2021/08/01 12:40:45;;;;;;;5.53;4.23;;;21.60;97.30;;;;;;5015876;28;20494;-82
2021/08/01 12:43:13;;;;;;;5.60;4.23;;;21.80;97.30;;;;;;5015678;28;20416;-82
2021/08/01 12:45:43;;;;;;;6.17;5.07;;;22.20;95.70;;;;;;5014673;28;20499;-82
2021/08/01 12:48:16;;;;;;;7.63;4.70;;;22.50;97.30;;;;;;5015439;28;20674;-83
2021/08/01 12:50:46;;;;;;;6.40;4.57;;;22.70;95.70;;;;;;5014703;28;20432;-84
2021/08/01 12:53:14;;;;;;;6.30;3.53;;;22.90;95.50;;;;;;5014345;28;20533;-82
2021/08/01 12:55:41;;;;;;;6.10;4.07;;;23.10;96.20;;;;;;5014316;28;20416;-83